createdAt,value
2018-02-11T09:51:38.998Z,100883.55
2018-02-11T09:54:06.509Z,100875.71
2018-02-11T09:56:34.011Z,100875.39
2018-02-11T09:59:01.508Z,100901.84
2018-02-11T10:01:28.994Z,100904.36
2018-02-11T10:03:56.484Z,100893.36
2018-02-11T10:06:23.971Z,100892.70
2018-02-11T10:08:51.503Z,100898.27
2018-02-11T10:11:19.013Z,100905.34
2018-02-11T10:13:46.515Z,100922.25
2018-02-11T10:16:14.065Z,100903.42
2018-02-11T10:18:41.577Z,100887.45
2018-02-11T10:21:09.139Z,100901.20
2018-02-11T10:23:36.622Z,100924.48
2018-02-11T10:26:04.152Z,100928.17
2018-02-11T10:28:31.657Z,100927.06
2018-02-11T10:30:59.161Z,100956.63
2018-02-11T10:33:26.646Z,100928.60
2018-02-11T10:35:54.131Z,100910.65
2018-02-11T10:38:21.609Z,100926.25
2018-02-11T10:43:14.158Z,100914.46
2018-02-11T10:45:41.740Z,100925.08
2018-02-11T10:48:09.263Z,100922.98
2018-02-11T10:50:36.783Z,100924.01
2018-02-11T10:53:04.327Z,100921.69
2018-02-11T10:55:31.838Z,100931.55
2018-02-11T10:57:59.436Z,100938.73
2018-02-11T11:00:26.914Z,100928.55
2018-02-11T11:02:54.404Z,100956.85
2018-02-11T11:05:21.916Z,100950.73
2018-02-11T11:07:49.436Z,100937.36
2018-02-11T11:10:16.943Z,100947.97
2018-02-11T11:12:44.485Z,100964.61
2018-02-11T11:15:11.975Z,100942.80
2018-02-11T11:17:39.474Z,100956.89
2018-02-11T11:20:06.982Z,100981.94
2018-02-11T11:22:34.498Z,100969.55
2018-02-11T11:25:02.023Z,100972.31
2018-02-11T11:27:29.520Z,100992.25
2018-02-11T11:29:57.031Z,100982.34
2018-02-11T11:32:24.500Z,100971.70
2018-02-11T11:34:52.040Z,100985.58
2018-02-11T11:37:20.527Z,100994.83
2018-02-11T11:39:48.016Z,101003.09
2018-02-11T11:42:15.613Z,100979.37
2018-02-11T11:44:43.174Z,100988.95
2018-02-11T11:47:10.675Z,100982.03
2018-02-11T11:49:38.187Z,100987.22
2018-02-11T11:52:05.687Z,101031.99
2018-02-11T11:54:33.197Z,100994.29
2018-02-11T11:57:00.678Z,100988.21
2018-02-11T11:59:28.186Z,101005.60
2018-02-11T12:01:55.686Z,100994.03
2018-02-11T12:04:23.195Z,101001.23
2018-02-11T12:06:50.692Z,100977.06
2018-02-11T12:09:18.170Z,100986.48
2018-02-11T12:11:45.670Z,101000.12
2018-02-11T12:14:13.382Z,101007.47
2018-02-11T12:16:40.987Z,100986.73
2018-02-11T12:19:08.475Z,100992.11
2018-02-11T12:21:35.958Z,100980.70
2018-02-11T12:24:03.447Z,100989.24
2018-02-11T12:26:30.930Z,100984.08
2018-02-11T12:28:58.444Z,100997.28
2018-02-11T12:31:25.941Z,101003.70
2018-02-11T12:33:53.463Z,100991.34
2018-02-11T12:36:20.959Z,101002.98
2018-02-11T12:38:48.466Z,101005.67
2018-02-11T12:41:15.971Z,101026.64
2018-02-11T12:43:43.489Z,101026.86
2018-02-11T12:46:10.980Z,101030.91
2018-02-11T12:48:38.483Z,101021.22
2018-02-11T12:51:06.122Z,101024.89
2018-02-11T12:53:33.581Z,101034.93
2018-02-11T12:56:01.103Z,101039.56
2018-02-11T12:58:28.949Z,101052.23
2018-02-11T13:00:56.498Z,101052.00
2018-02-11T13:03:23.994Z,101038.04
2018-02-11T13:05:51.483Z,101038.30
2018-02-11T13:08:19.003Z,101050.86
2018-02-11T13:10:46.492Z,101062.31
2018-02-11T13:13:13.995Z,101035.51
2018-02-11T13:15:41.484Z,101049.09
2018-02-11T13:18:09.028Z,101068.02
2018-02-11T13:20:40.945Z,101045.26
2018-02-11T13:23:08.427Z,101049.62
2018-02-11T13:25:35.939Z,101046.20
2018-02-11T13:28:03.450Z,101052.66
2018-02-11T13:30:30.955Z,101060.91
2018-02-11T13:32:58.433Z,101073.66
2018-02-11T13:35:25.915Z,101058.55
2018-02-11T13:37:53.408Z,101062.88
2018-02-11T13:40:20.906Z,101060.67
2018-02-11T13:42:49.238Z,101068.20
2018-02-11T13:45:16.779Z,101066.47
2018-02-11T13:47:44.260Z,101071.82
2018-02-11T13:50:11.763Z,101078.47
2018-02-11T13:52:40.479Z,101091.13
2018-02-11T13:55:07.985Z,101092.16
2018-02-11T13:57:35.494Z,101087.89
2018-02-11T14:00:03.100Z,101090.27
2018-02-11T14:02:30.614Z,101095.95
2018-02-11T14:04:58.102Z,101095.52
2018-02-11T14:07:25.596Z,101094.05
2018-02-11T14:09:53.085Z,101091.27
2018-02-11T14:12:20.577Z,101114.02
2018-02-11T14:14:54.207Z,101112.73
2018-02-11T14:17:23.170Z,101106.09
2018-02-11T14:19:54.132Z,101099.48
2018-02-11T14:22:22.378Z,101142.78
2018-02-11T14:24:54.728Z,101106.34
2018-02-11T14:27:27.464Z,101106.09
2018-02-11T14:30:02.999Z,101106.01
2018-02-11T14:32:30.597Z,101109.42
2018-02-11T14:34:58.156Z,101098.88
2018-02-11T14:37:26.696Z,101106.31
2018-02-11T14:39:54.198Z,101123.52
2018-02-11T14:42:21.696Z,101102.68
2018-02-11T14:44:49.244Z,101108.64
2018-02-11T14:47:16.788Z,101113.48
2018-02-11T14:49:44.588Z,101136.86
2018-02-11T14:52:12.219Z,101140.05
2018-02-11T14:54:39.760Z,101122.63
2018-02-11T14:57:07.331Z,101132.73
2018-02-11T14:59:34.903Z,101121.48
2018-02-11T15:02:02.481Z,101126.28
2018-02-11T15:04:29.952Z,101124.73
2018-02-11T15:06:57.489Z,101139.55
2018-02-11T15:09:24.995Z,101142.30
2018-02-11T15:11:52.475Z,101134.77
2018-02-11T15:14:20.004Z,101167.63
2018-02-11T15:16:47.508Z,101148.81
2018-02-11T15:19:15.400Z,101152.17
2018-02-11T15:21:42.910Z,101159.37
2018-02-11T15:24:10.490Z,101181.78
2018-02-11T15:26:37.976Z,101169.00
2018-02-11T15:29:05.660Z,101171.59
2018-02-11T15:31:33.358Z,101191.85
2018-02-11T15:34:00.835Z,101157.20
2018-02-11T15:36:28.323Z,101185.11
2018-02-11T15:38:55.893Z,101178.30
2018-02-11T15:41:23.460Z,101197.38
2018-02-11T15:43:50.999Z,101177.93
2018-02-11T15:46:18.559Z,101203.02
2018-02-11T15:48:46.095Z,101196.69
2018-02-11T15:51:13.623Z,101190.81
2018-02-11T15:53:41.193Z,101192.48
2018-02-11T15:56:08.753Z,101198.11
2018-02-11T15:58:36.244Z,101200.20
2018-02-11T16:01:03.743Z,101199.02
2018-02-11T16:03:31.256Z,101199.16
2018-02-11T16:05:59.547Z,101218.75
2018-02-11T16:08:27.120Z,101228.86
2018-02-11T16:10:54.630Z,101209.23
2018-02-11T16:13:22.134Z,101210.66
2018-02-11T16:15:49.654Z,101211.52
2018-02-11T16:18:17.173Z,101211.45
2018-02-11T16:20:44.753Z,101210.83
2018-02-11T16:23:12.248Z,101210.73
2018-02-11T16:25:39.888Z,101206.44
2018-02-11T16:28:07.384Z,101216.30
2018-02-11T16:30:34.898Z,101221.39
2018-02-11T16:33:02.384Z,101224.84
2018-02-11T16:35:29.921Z,101217.39
2018-02-11T16:37:57.423Z,101228.54
2018-02-11T16:40:24.955Z,101228.55
2018-02-11T16:42:52.461Z,101245.83
2018-02-11T16:45:19.955Z,101253.61
2018-02-11T16:47:47.446Z,101253.23
2018-02-11T16:50:14.980Z,101253.31
2018-02-11T16:52:42.533Z,101259.95
2018-02-11T16:55:10.018Z,101226.05
2018-02-11T16:57:37.609Z,101264.94
2018-02-11T17:00:05.222Z,101272.78
2018-02-11T17:02:32.734Z,101262.10
2018-02-11T17:05:00.233Z,101276.77
2018-02-11T17:07:27.711Z,101263.02
2018-02-11T17:09:55.215Z,101294.05
2018-02-11T17:12:22.764Z,101279.88
2018-02-11T17:14:50.352Z,101280.75
2018-02-11T17:17:17.864Z,101290.28
2018-02-11T17:19:45.383Z,101309.29
2018-02-11T17:22:12.856Z,101295.23
2018-02-11T17:24:40.335Z,101297.52
2018-02-11T17:27:07.860Z,101304.55
2018-02-11T17:29:36.279Z,101311.11
2018-02-11T17:32:03.941Z,101317.63
2018-02-11T17:34:31.846Z,101318.91
2018-02-11T17:36:59.387Z,101325.33
2018-02-11T17:39:26.976Z,101324.03
2018-02-11T17:41:54.564Z,101326.61
2018-02-11T17:44:22.089Z,101333.50
2018-02-11T17:46:49.619Z,101343.41
2018-02-11T17:49:17.220Z,101338.25
2018-02-11T17:51:44.903Z,101346.42
2018-02-11T17:54:13.407Z,101354.61
2018-02-11T17:56:41.025Z,101367.09
2018-02-11T17:59:08.530Z,101363.21
2018-02-11T18:01:36.857Z,101352.44
2018-02-11T18:04:05.498Z,101369.63
2018-02-11T18:06:33.008Z,101374.41
2018-02-11T18:09:00.572Z,101368.34
2018-02-11T18:11:29.813Z,101374.84
2018-02-11T18:13:57.512Z,101371.39
2018-02-11T18:16:28.513Z,101380.02
2018-02-11T18:18:57.474Z,101386.52
2018-02-11T18:25:18.763Z,101393.45
2018-02-11T18:27:46.480Z,101371.92
2018-02-11T19:39:16.779Z,101526.22
2018-02-11T19:41:44.318Z,101517.57
2018-02-11T19:44:11.874Z,101518.83
2018-02-11T19:46:39.405Z,101523.09
2018-02-11T19:49:06.941Z,101533.81
2018-02-11T19:51:34.591Z,101542.42
2018-02-11T19:54:02.133Z,101528.17
2018-02-11T19:56:29.638Z,101535.06
2018-02-11T19:58:57.120Z,101546.22
2018-02-11T20:01:24.771Z,101552.67
2018-02-11T20:03:53.326Z,101546.26
2018-02-11T20:06:20.828Z,101535.06
2018-02-11T20:08:48.394Z,101537.22
2018-02-11T20:11:16.096Z,101547.12
2018-02-11T20:13:45.204Z,101548.80
2018-02-11T20:16:12.788Z,101556.13
2018-02-11T20:18:40.755Z,101553.14
2018-02-11T20:21:08.279Z,101558.78
2018-02-11T20:23:38.089Z,101560.59
2018-02-11T20:26:06.401Z,101557.25
2018-02-11T20:28:33.899Z,101561.12
2018-02-11T20:31:01.397Z,101555.07
2018-02-11T20:33:28.978Z,101564.11
2018-02-11T20:35:56.518Z,101557.18
2018-02-11T20:38:27.353Z,101573.50
2018-02-11T20:40:55.072Z,101570.88
2018-02-11T20:43:23.633Z,101585.98
2018-02-11T20:45:52.432Z,101573.94
2018-02-11T20:48:19.908Z,101577.45
2018-02-11T20:50:47.401Z,101574.02
2018-02-11T20:53:14.890Z,101586.95
2018-02-11T20:55:42.379Z,101590.02
2018-02-11T20:58:10.011Z,101590.48
2018-02-11T21:00:37.521Z,101592.66
2018-02-11T21:03:05.073Z,101596.97
2018-02-11T21:05:32.583Z,101597.83
2018-02-11T21:08:00.070Z,101595.28
2018-02-11T21:10:27.607Z,101603.89
2018-02-11T21:12:55.079Z,101601.34
2018-02-11T21:15:22.614Z,101611.67
2018-02-11T21:17:50.188Z,101617.73
2018-02-11T21:20:17.694Z,101625.05
2018-02-11T21:22:45.188Z,101633.23
2018-02-11T21:25:12.699Z,101628.92
2018-02-11T21:27:40.317Z,101617.30
2018-02-11T21:30:07.832Z,101634.98
2018-02-11T21:32:35.336Z,101629.35
2018-02-11T21:35:02.835Z,101637.53
2018-02-11T21:37:30.335Z,101632.83
2018-02-11T21:39:59.242Z,101640.11
2018-02-11T21:42:26.721Z,101641.80
2018-02-11T21:44:54.203Z,101637.03
2018-02-11T21:47:21.767Z,101646.50
2018-02-11T21:49:49.333Z,101657.27
2018-02-11T21:52:16.839Z,101643.92
2018-02-11T21:54:44.323Z,101651.20
2018-02-11T21:57:11.822Z,101648.19
2018-02-11T21:59:39.423Z,101637.89
2018-02-11T22:02:06.928Z,101650.81
2018-02-11T22:04:34.418Z,101649.52
2018-02-11T22:07:01.906Z,101647.36
2018-02-11T22:09:29.386Z,101649.52
2018-02-11T22:11:56.886Z,101652.12
2018-02-11T22:14:24.406Z,101656.00
2018-02-11T22:16:51.898Z,101658.52
2018-02-11T22:19:19.424Z,101659.81
2018-02-11T22:21:46.931Z,101663.66
2018-02-11T22:24:14.456Z,101678.29
2018-02-11T22:26:41.964Z,101667.09
2018-02-11T22:29:09.503Z,101673.55
2018-02-11T22:31:37.025Z,101676.17
2018-02-11T22:34:04.551Z,101678.36
2018-02-11T22:36:32.044Z,101673.62
2018-02-11T22:38:59.537Z,101674.05
2018-02-11T22:41:27.059Z,101674.91
2018-02-11T22:43:54.643Z,101664.18
2018-02-11T22:46:22.130Z,101685.27
2018-02-11T22:48:49.627Z,101681.83
2018-02-11T22:51:17.099Z,101678.41
2018-02-11T22:53:44.586Z,101683.15
2018-02-11T22:56:12.115Z,101684.02
2018-02-11T22:58:39.587Z,101688.31
2018-02-11T23:01:07.087Z,101684.87
2018-02-11T23:03:34.586Z,101683.12
2018-02-11T23:06:02.098Z,101687.85
2018-02-11T23:08:29.603Z,101692.13
2018-02-11T23:10:57.126Z,101687.82
2018-02-11T23:13:24.600Z,101697.69
2018-02-11T23:15:52.093Z,101698.55
2018-02-11T23:18:19.594Z,101704.15
2018-02-11T23:20:47.078Z,101705.44
2018-02-11T23:23:14.577Z,101708.45
2018-02-11T23:25:42.094Z,101712.75
2018-02-11T23:28:09.595Z,101711.92
2018-02-11T23:30:37.079Z,101714.51
2018-02-11T23:33:04.550Z,101711.92
2018-02-11T23:35:32.052Z,101721.82
2018-02-11T23:37:59.544Z,101727.42
2018-02-11T23:40:27.032Z,101724.84
2018-02-11T23:42:54.570Z,101720.11
2018-02-11T23:45:22.078Z,101720.53
2018-02-11T23:47:49.569Z,101715.37
2018-02-11T23:50:17.078Z,101737.75
2018-02-11T23:52:44.551Z,101724.84
2018-02-11T23:55:12.047Z,101728.68
2018-02-11T23:57:39.531Z,101717.49
